createdAt,value
2018-03-31T00:00:29.696Z,20.31
2018-03-31T00:02:55.663Z,20.31
2018-03-31T00:05:21.618Z,20.36
2018-03-31T00:07:47.561Z,20.29
2018-03-31T00:10:13.618Z,20.31
2018-03-31T00:12:39.566Z,20.34
2018-03-31T00:15:05.526Z,20.34
2018-03-31T00:17:31.477Z,20.32
2018-03-31T00:19:57.420Z,20.30
2018-03-31T00:22:23.388Z,20.28
2018-03-31T00:24:49.435Z,20.27
2018-03-31T00:27:15.483Z,20.23
2018-03-31T00:29:41.434Z,20.23
2018-03-31T00:32:07.389Z,20.27
2018-03-31T00:34:33.357Z,20.22
2018-03-31T00:36:59.309Z,20.24
2018-03-31T00:39:25.265Z,20.26
2018-03-31T00:41:51.210Z,20.25
2018-03-31T00:44:17.173Z,20.27
2018-03-31T00:46:43.122Z,20.27
2018-03-31T00:49:09.085Z,20.29
2018-03-31T00:51:35.042Z,20.28
2018-03-31T00:54:00.999Z,20.25
2018-03-31T00:56:26.922Z,20.31
2018-03-31T00:58:52.893Z,20.27
2018-03-31T01:01:18.833Z,20.28
2018-03-31T01:03:44.808Z,20.28
2018-03-31T01:06:10.765Z,20.27
2018-03-31T01:08:36.714Z,20.25
2018-03-31T01:11:02.677Z,20.20
2018-03-31T01:13:28.625Z,20.18
2018-03-31T01:15:54.690Z,20.19
2018-03-31T01:18:20.625Z,20.20
2018-03-31T01:20:46.580Z,20.24
2018-03-31T01:23:12.521Z,20.22
2018-03-31T01:25:38.459Z,20.21
2018-03-31T01:28:04.401Z,20.21
2018-03-31T01:30:30.354Z,20.21
2018-03-31T01:32:56.311Z,20.24
2018-03-31T01:35:22.326Z,20.28
2018-03-31T01:37:48.413Z,20.19
2018-03-31T01:40:14.354Z,20.18
2018-03-31T01:42:40.315Z,20.19
2018-03-31T01:45:06.272Z,20.23
2018-03-31T01:47:32.201Z,20.25
2018-03-31T01:49:58.138Z,20.22
2018-03-31T01:52:24.083Z,20.24
2018-03-31T01:54:50.049Z,20.21
2018-03-31T01:57:15.981Z,20.21
2018-03-31T01:59:41.960Z,20.17
2018-03-31T02:02:07.890Z,20.15
2018-03-31T02:04:33.906Z,20.15
2018-03-31T02:06:59.850Z,20.16
2018-03-31T02:09:25.781Z,20.20
2018-03-31T02:11:51.726Z,20.18
2018-03-31T02:14:17.761Z,20.15
2018-03-31T02:16:43.733Z,20.18
2018-03-31T02:19:09.704Z,20.19
2018-03-31T02:21:35.691Z,20.11
2018-03-31T02:24:01.626Z,20.18
2018-03-31T02:26:27.573Z,20.22
2018-03-31T02:28:53.512Z,20.21
2018-03-31T02:31:19.446Z,20.21
2018-03-31T02:33:45.394Z,20.18
2018-03-31T02:36:11.342Z,20.21
2018-03-31T02:38:37.295Z,20.17
2018-03-31T02:41:03.246Z,20.16
2018-03-31T02:43:29.181Z,20.20
2018-03-31T02:45:55.128Z,20.14
2018-03-31T02:48:21.141Z,20.14
2018-03-31T02:50:47.105Z,20.11
2018-03-31T02:53:13.044Z,20.15
2018-03-31T02:55:39.001Z,20.18
2018-03-31T02:58:04.942Z,20.16
2018-03-31T03:00:30.901Z,20.16
2018-03-31T03:02:56.856Z,20.14
2018-03-31T03:05:22.810Z,20.12
2018-03-31T03:07:48.751Z,20.12
2018-03-31T03:10:14.698Z,20.15
2018-03-31T03:12:40.639Z,20.12
2018-03-31T03:15:06.578Z,20.16
2018-03-31T03:17:32.525Z,20.13
2018-03-31T03:19:58.470Z,20.13
2018-03-31T03:22:24.413Z,20.12
2018-03-31T03:24:50.435Z,20.17
2018-03-31T03:27:16.372Z,20.14
2018-03-31T03:29:42.309Z,20.15
2018-03-31T03:32:08.260Z,20.12
2018-03-31T03:34:34.237Z,20.12
2018-03-31T03:37:00.187Z,20.10
2018-03-31T03:39:26.118Z,20.07
2018-03-31T03:41:52.074Z,20.09
2018-03-31T03:44:18.074Z,20.12
2018-03-31T03:46:44.017Z,20.10
2018-03-31T03:49:10.010Z,20.11
2018-03-31T03:51:35.967Z,20.10
2018-03-31T03:54:01.910Z,20.07
2018-03-31T03:56:27.929Z,20.10
2018-03-31T03:58:53.889Z,20.10
2018-03-31T04:01:19.829Z,20.11
2018-03-31T04:03:45.837Z,20.08
2018-03-31T04:06:11.793Z,20.11
2018-03-31T04:08:37.738Z,20.10
2018-03-31T04:11:03.702Z,20.09
2018-03-31T04:13:29.708Z,20.12
2018-03-31T04:15:55.667Z,20.12
2018-03-31T04:18:21.639Z,20.11
2018-03-31T04:20:47.576Z,20.07
2018-03-31T04:23:13.520Z,20.06
2018-03-31T04:25:39.483Z,20.05
2018-03-31T04:28:05.420Z,20.01
2018-03-31T04:30:31.358Z,20.04
2018-03-31T04:32:57.457Z,20.05
2018-03-31T04:35:23.377Z,20.05
2018-03-31T04:37:49.341Z,20.09
2018-03-31T04:40:15.365Z,20.03
2018-03-31T04:42:41.306Z,20.03
2018-03-31T04:45:07.238Z,20.00
2018-03-31T04:47:33.174Z,20.02
2018-03-31T04:49:59.131Z,20.06
2018-03-31T04:52:25.078Z,20.03
2018-03-31T04:54:51.073Z,20.05
2018-03-31T04:57:17.030Z,20.05
2018-03-31T04:59:42.975Z,20.10
2018-03-31T05:02:08.918Z,20.05
2018-03-31T05:04:34.851Z,20.07
2018-03-31T05:07:00.815Z,20.07
2018-03-31T05:09:26.746Z,20.01
2018-03-31T05:11:52.770Z,20.03
2018-03-31T05:14:18.666Z,19.99
2018-03-31T05:16:44.598Z,19.99
2018-03-31T05:19:10.550Z,20.02
2018-03-31T05:21:36.510Z,20.00
2018-03-31T05:24:02.452Z,20.01
2018-03-31T05:26:28.467Z,20.00
2018-03-31T05:28:54.365Z,19.99
2018-03-31T05:31:20.298Z,20.13
2018-03-31T05:33:46.319Z,20.08
2018-03-31T05:36:12.259Z,20.02
2018-03-31T05:38:38.207Z,20.01
2018-03-31T05:41:04.146Z,20.03
2018-03-31T05:43:30.131Z,20.02
2018-03-31T05:45:56.084Z,20.05
2018-03-31T05:48:22.030Z,20.06
2018-03-31T05:50:47.979Z,20.03
2018-03-31T05:53:13.914Z,20.02
2018-03-31T05:55:39.869Z,20.08
2018-03-31T05:58:05.823Z,20.01
2018-03-31T06:00:31.789Z,20.04
2018-03-31T06:02:57.730Z,20.07
2018-03-31T06:05:23.685Z,20.05
2018-03-31T06:07:49.653Z,20.05
2018-03-31T06:10:15.578Z,20.08
2018-03-31T06:12:41.507Z,20.20
2018-03-31T06:15:07.461Z,20.13
2018-03-31T06:17:33.414Z,20.13
2018-03-31T06:19:59.348Z,20.19
2018-03-31T06:22:25.309Z,20.13
2018-03-31T06:24:51.244Z,20.16
2018-03-31T06:27:17.192Z,20.28
2018-03-31T06:29:43.145Z,20.31
2018-03-31T06:32:09.088Z,20.42
2018-03-31T06:34:35.023Z,20.45
2018-03-31T06:37:00.958Z,20.52
2018-03-31T06:39:26.906Z,20.44
2018-03-31T06:41:52.848Z,20.55
2018-03-31T06:44:18.842Z,20.65
2018-03-31T06:46:44.833Z,20.62
2018-03-31T06:49:10.733Z,20.54
2018-03-31T06:51:36.673Z,20.53
2018-03-31T06:54:02.617Z,20.51
2018-03-31T06:56:28.574Z,20.54
2018-03-31T06:58:54.523Z,20.49
2018-03-31T07:01:20.456Z,20.47
2018-03-31T07:03:46.422Z,20.47
2018-03-31T07:06:12.377Z,20.48
2018-03-31T07:08:38.337Z,20.49
2018-03-31T07:11:04.287Z,20.45
2018-03-31T07:13:30.255Z,20.49
2018-03-31T07:15:56.187Z,20.48
2018-03-31T07:18:22.146Z,20.50
2018-03-31T07:20:48.110Z,20.51
2018-03-31T07:23:14.058Z,20.50
2018-03-31T07:25:40.041Z,20.52
2018-03-31T07:28:05.978Z,20.66
2018-03-31T07:30:31.965Z,20.57
2018-03-31T07:32:57.997Z,20.60
2018-03-31T07:35:23.946Z,20.58
2018-03-31T07:37:49.882Z,20.70
2018-03-31T07:40:15.873Z,20.57
2018-03-31T07:42:41.817Z,20.63
2018-03-31T07:45:07.789Z,20.57
2018-03-31T07:47:33.787Z,20.51
2018-03-31T07:49:59.753Z,20.46
2018-03-31T07:52:25.690Z,20.59
2018-03-31T07:54:51.661Z,20.60
2018-03-31T07:57:17.606Z,20.42
2018-03-31T07:59:43.573Z,20.39
2018-03-31T08:02:09.638Z,20.38
2018-03-31T08:04:35.593Z,20.43
2018-03-31T08:07:01.543Z,20.43
2018-03-31T08:09:27.498Z,20.45
2018-03-31T08:11:53.461Z,20.42
2018-03-31T08:14:19.409Z,20.42
2018-03-31T08:16:45.499Z,20.46
2018-03-31T08:19:11.421Z,20.46
2018-03-31T08:21:37.369Z,20.47
2018-03-31T08:24:03.337Z,20.47
2018-03-31T08:26:29.270Z,20.54
2018-03-31T08:28:55.214Z,20.50
2018-03-31T08:31:21.188Z,20.48
2018-03-31T08:33:47.134Z,20.44
2018-03-31T08:36:13.089Z,20.49
2018-03-31T08:38:39.036Z,20.49
2018-03-31T08:41:04.969Z,20.49
2018-03-31T08:43:30.935Z,20.51
2018-03-31T08:45:56.873Z,20.49
2018-03-31T08:48:22.824Z,20.52
2018-03-31T08:50:48.774Z,20.57
2018-03-31T08:53:14.713Z,20.54
2018-03-31T08:55:40.658Z,20.53
2018-03-31T08:58:06.602Z,20.55
2018-03-31T09:00:32.552Z,20.59
2018-03-31T09:02:58.481Z,20.58
2018-03-31T09:05:24.446Z,20.59
2018-03-31T09:07:50.383Z,20.58
2018-03-31T09:10:16.330Z,20.55
2018-03-31T09:12:42.262Z,20.59
2018-03-31T09:15:08.210Z,20.60
2018-03-31T09:17:34.179Z,20.63
2018-03-31T09:20:00.158Z,20.53
2018-03-31T09:22:26.112Z,20.53
2018-03-31T09:24:52.046Z,20.56
2018-03-31T09:27:17.994Z,20.54
2018-03-31T09:29:43.951Z,20.51
2018-03-31T09:32:09.931Z,20.55
2018-03-31T09:34:35.881Z,20.53
2018-03-31T09:37:01.809Z,20.55
2018-03-31T09:39:27.781Z,20.58
2018-03-31T09:41:53.745Z,20.56
2018-03-31T09:44:19.698Z,20.55
2018-03-31T09:46:45.667Z,20.63
2018-03-31T09:49:11.582Z,20.63
2018-03-31T09:51:37.522Z,20.61
2018-03-31T09:54:03.498Z,20.61
2018-03-31T09:56:29.440Z,20.64
2018-03-31T09:58:55.387Z,20.63
2018-03-31T10:01:21.318Z,20.65
2018-03-31T10:03:47.276Z,20.65
2018-03-31T10:06:13.218Z,20.63
2018-03-31T10:08:39.179Z,20.64
2018-03-31T10:11:05.112Z,20.61
2018-03-31T10:13:31.053Z,20.57
2018-03-31T10:15:56.989Z,20.57
2018-03-31T10:18:22.935Z,20.56
2018-03-31T10:20:48.894Z,20.62
2018-03-31T10:23:14.859Z,20.60
2018-03-31T10:25:40.809Z,20.63
2018-03-31T10:28:06.751Z,20.64
2018-03-31T10:30:32.701Z,20.65
2018-03-31T10:32:58.626Z,20.64
2018-03-31T10:35:24.645Z,20.65
2018-03-31T10:37:50.545Z,20.68
2018-03-31T10:40:16.504Z,20.65
2018-03-31T10:42:42.508Z,20.70
2018-03-31T10:45:08.410Z,20.68
2018-03-31T10:47:34.393Z,20.71
2018-03-31T10:50:00.370Z,20.66
2018-03-31T10:52:26.338Z,20.64
2018-03-31T10:54:52.273Z,20.66
2018-03-31T10:57:18.240Z,20.67
2018-03-31T10:59:44.174Z,20.69
2018-03-31T11:02:10.167Z,20.66
2018-03-31T11:04:36.096Z,20.68
2018-03-31T11:07:02.057Z,20.64
2018-03-31T11:09:28.053Z,20.66
2018-03-31T11:11:53.994Z,20.68
2018-03-31T11:14:19.966Z,20.70
2018-03-31T11:16:45.953Z,20.69
2018-03-31T11:19:11.916Z,20.69
2018-03-31T11:21:37.852Z,20.67
2018-03-31T11:24:03.842Z,20.69
2018-03-31T11:26:29.798Z,20.70
2018-03-31T11:28:55.766Z,20.74
2018-03-31T11:31:21.707Z,20.79
2018-03-31T11:33:47.677Z,20.74
2018-03-31T11:36:13.617Z,20.72
2018-03-31T11:38:39.642Z,20.75
2018-03-31T11:41:05.637Z,20.71
2018-03-31T11:43:31.577Z,20.70
2018-03-31T11:45:57.531Z,20.72
2018-03-31T11:48:23.510Z,20.71
2018-03-31T11:50:49.469Z,20.66
2018-03-31T11:53:15.418Z,20.68
2018-03-31T11:55:41.378Z,20.70
2018-03-31T11:58:07.339Z,20.71
2018-03-31T12:00:33.288Z,20.68
2018-03-31T12:02:59.241Z,20.67
2018-03-31T12:05:25.182Z,20.67
2018-03-31T12:07:51.189Z,20.73
2018-03-31T12:10:17.138Z,20.74
2018-03-31T12:12:43.093Z,20.72
2018-03-31T12:15:09.142Z,20.72
2018-03-31T12:17:35.097Z,20.78
2018-03-31T12:20:01.034Z,20.76
2018-03-31T12:22:26.990Z,20.75
2018-03-31T12:24:52.945Z,20.80
2018-03-31T12:27:18.890Z,20.78
2018-03-31T12:29:44.845Z,20.78
2018-03-31T12:32:10.813Z,20.76
2018-03-31T12:34:36.756Z,20.75
2018-03-31T12:37:02.704Z,20.75
2018-03-31T12:39:28.674Z,20.72
2018-03-31T12:41:54.622Z,20.70
2018-03-31T12:44:20.577Z,20.68
2018-03-31T12:46:46.518Z,20.70
2018-03-31T12:49:12.478Z,20.69
2018-03-31T12:51:38.423Z,20.69
2018-03-31T12:54:04.353Z,20.78
2018-03-31T12:56:30.359Z,20.80
2018-03-31T12:58:56.291Z,20.80
2018-03-31T13:01:22.233Z,20.74
2018-03-31T13:03:48.205Z,20.77
2018-03-31T13:06:14.169Z,20.83
2018-03-31T13:08:40.106Z,20.78
2018-03-31T13:11:06.038Z,20.79
2018-03-31T13:13:31.982Z,20.78
2018-03-31T13:15:57.921Z,20.78
2018-03-31T13:18:23.878Z,20.77
2018-03-31T13:20:49.836Z,20.77
2018-03-31T13:23:15.824Z,20.76
2018-03-31T13:25:41.769Z,20.74
2018-03-31T13:28:07.705Z,20.70
2018-03-31T13:30:33.650Z,20.78
2018-03-31T13:32:59.595Z,20.86
2018-03-31T13:35:25.549Z,20.77
2018-03-31T13:37:51.508Z,20.78
2018-03-31T13:40:17.462Z,20.77
2018-03-31T13:42:43.441Z,20.76
2018-03-31T13:45:09.431Z,20.74
2018-03-31T13:47:35.407Z,20.81
2018-03-31T13:50:01.395Z,20.86
2018-03-31T13:52:27.342Z,20.82
2018-03-31T13:54:53.289Z,20.80
2018-03-31T13:57:19.243Z,20.84
2018-03-31T13:59:45.214Z,20.83
2018-03-31T14:02:11.273Z,20.77
2018-03-31T14:04:37.214Z,20.79
2018-03-31T14:07:03.161Z,20.81
2018-03-31T14:09:29.143Z,20.80
2018-03-31T14:11:55.087Z,20.81
2018-03-31T14:14:21.046Z,20.82
2018-03-31T14:16:47.006Z,20.78
2018-03-31T14:19:12.938Z,20.78
2018-03-31T14:21:38.901Z,20.83
2018-03-31T14:24:04.850Z,20.82
2018-03-31T14:26:30.785Z,20.80
2018-03-31T14:28:56.725Z,20.76
2018-03-31T14:31:22.685Z,20.79
2018-03-31T14:33:48.632Z,20.77
2018-03-31T14:36:14.597Z,20.78
2018-03-31T14:38:40.532Z,20.80
2018-03-31T14:41:06.491Z,20.82
2018-03-31T14:43:32.487Z,20.88
2018-03-31T14:45:58.416Z,20.84
2018-03-31T14:48:24.397Z,20.83
2018-03-31T14:50:50.333Z,20.83
2018-03-31T14:53:16.273Z,20.83
2018-03-31T14:55:42.234Z,20.85
2018-03-31T14:58:08.190Z,20.90
2018-03-31T15:00:34.129Z,20.80
2018-03-31T15:03:00.084Z,20.77
2018-03-31T15:05:26.053Z,20.78
2018-03-31T15:07:52.015Z,20.79
2018-03-31T15:10:17.954Z,20.80
2018-03-31T15:12:43.906Z,20.77
2018-03-31T15:15:09.813Z,20.74
2018-03-31T15:17:35.784Z,20.79
2018-03-31T15:20:01.751Z,20.77
2018-03-31T15:22:27.697Z,20.83
2018-03-31T15:24:53.630Z,20.84
2018-03-31T15:27:19.597Z,20.83
2018-03-31T15:29:45.602Z,20.84
2018-03-31T15:32:11.582Z,20.88
2018-03-31T15:34:37.533Z,20.86
2018-03-31T15:37:03.474Z,20.85
2018-03-31T15:39:29.417Z,20.86
2018-03-31T15:41:55.384Z,20.86
2018-03-31T15:44:21.326Z,20.87
2018-03-31T15:46:47.266Z,20.89
2018-03-31T15:49:13.206Z,20.81
2018-03-31T15:51:39.154Z,20.76
2018-03-31T15:54:05.093Z,20.76
2018-03-31T15:56:31.058Z,20.83
2018-03-31T15:58:56.997Z,20.79
2018-03-31T16:01:22.946Z,20.84
2018-03-31T16:03:48.906Z,20.80
2018-03-31T16:06:14.878Z,20.82
2018-03-31T16:08:40.835Z,20.79
2018-03-31T16:11:06.770Z,20.83
2018-03-31T16:13:32.725Z,20.84
2018-03-31T16:15:58.665Z,20.82
2018-03-31T16:18:24.637Z,20.84
2018-03-31T16:20:50.585Z,20.83
2018-03-31T16:23:16.488Z,20.87
2018-03-31T16:25:42.466Z,20.90
2018-03-31T16:28:08.442Z,20.86
2018-03-31T16:30:34.407Z,20.87
2018-03-31T16:33:00.342Z,20.85
2018-03-31T16:35:26.285Z,20.90
2018-03-31T16:37:52.238Z,20.85
2018-03-31T16:40:18.181Z,20.88
2018-03-31T16:42:44.130Z,20.81
2018-03-31T16:45:10.073Z,20.79
2018-03-31T16:47:36.010Z,20.84
2018-03-31T16:50:01.959Z,20.85
2018-03-31T16:52:27.925Z,20.83
2018-03-31T16:54:53.874Z,20.83
2018-03-31T16:57:19.826Z,20.80
2018-03-31T16:59:45.878Z,20.84
2018-03-31T17:02:11.828Z,20.86
2018-03-31T17:04:37.789Z,20.84
2018-03-31T17:07:03.741Z,20.80
2018-03-31T17:09:29.689Z,20.83
2018-03-31T17:11:55.633Z,20.96
2018-03-31T17:14:21.596Z,20.90
2018-03-31T17:16:47.551Z,20.86
2018-03-31T17:19:13.497Z,20.88
2018-03-31T17:21:39.465Z,20.87
2018-03-31T17:24:05.405Z,20.86
2018-03-31T17:26:31.364Z,20.95
2018-03-31T17:28:57.326Z,20.85
2018-03-31T17:31:23.285Z,20.87
2018-03-31T17:33:49.240Z,20.84
2018-03-31T17:36:15.193Z,20.88
2018-03-31T17:38:41.138Z,20.85
2018-03-31T17:41:07.123Z,20.79
2018-03-31T17:43:33.122Z,20.85
2018-03-31T17:45:59.063Z,20.78
2018-03-31T17:48:25.026Z,20.80
2018-03-31T17:50:51.065Z,20.84
2018-03-31T17:53:17.006Z,20.90
2018-03-31T17:55:42.941Z,20.88
2018-03-31T17:58:08.881Z,20.90
2018-03-31T18:00:34.842Z,20.89
2018-03-31T18:03:00.794Z,20.90
2018-03-31T18:05:26.734Z,20.90
2018-03-31T18:07:52.682Z,20.91
2018-03-31T18:10:18.635Z,20.92
2018-03-31T18:12:44.593Z,20.89
2018-03-31T18:15:10.546Z,20.88
2018-03-31T18:17:36.482Z,20.85
2018-03-31T18:20:02.424Z,20.84
2018-03-31T18:22:28.369Z,20.83
2018-03-31T18:24:54.354Z,20.89
2018-03-31T18:27:20.298Z,20.85
2018-03-31T18:29:46.249Z,20.84
2018-03-31T18:32:12.198Z,20.82
2018-03-31T18:34:38.145Z,20.81
2018-03-31T18:37:04.121Z,20.81
2018-03-31T18:39:30.084Z,20.86
2018-03-31T18:41:56.044Z,20.89
2018-03-31T18:44:21.997Z,20.87
2018-03-31T18:46:47.962Z,20.87
2018-03-31T18:49:13.909Z,20.87
2018-03-31T18:51:39.865Z,20.87
2018-03-31T18:54:05.810Z,20.87
2018-03-31T18:56:31.740Z,20.83
2018-03-31T18:58:57.731Z,20.93
2018-03-31T19:01:23.690Z,20.94
2018-03-31T19:03:49.643Z,20.90
2018-03-31T19:06:15.650Z,20.89
2018-03-31T19:08:41.590Z,20.84
2018-03-31T19:11:07.540Z,20.88
2018-03-31T19:13:33.515Z,20.87
2018-03-31T19:15:59.467Z,20.86
2018-03-31T19:18:25.403Z,20.84
2018-03-31T19:20:51.357Z,20.84
2018-03-31T19:23:17.313Z,20.86
2018-03-31T19:25:43.260Z,20.85
2018-03-31T19:28:09.211Z,20.81
2018-03-31T19:30:35.162Z,20.79
2018-03-31T19:33:01.107Z,20.79
2018-03-31T19:35:27.045Z,20.75
2018-03-31T19:37:53.119Z,20.86
2018-03-31T19:40:19.066Z,20.81
2018-03-31T19:42:45.014Z,20.78
2018-03-31T19:45:11.073Z,20.84
2018-03-31T19:47:37.026Z,20.85
2018-03-31T19:50:02.967Z,21.01
2018-03-31T19:52:28.924Z,20.93
2018-03-31T19:54:54.878Z,20.84
2018-03-31T19:57:20.813Z,20.79
2018-03-31T19:59:46.773Z,20.80
2018-03-31T20:02:12.713Z,20.81
2018-03-31T20:04:38.723Z,20.80
2018-03-31T20:07:04.694Z,20.76
2018-03-31T20:09:30.675Z,20.76
2018-03-31T20:11:56.613Z,20.76
2018-03-31T20:14:22.576Z,20.81
2018-03-31T20:16:48.551Z,20.77
2018-03-31T20:19:14.596Z,20.81
2018-03-31T20:21:40.611Z,20.75
2018-03-31T20:24:06.640Z,20.86
2018-03-31T20:26:32.702Z,20.79
2018-03-31T20:28:58.648Z,20.74
2018-03-31T20:31:24.612Z,20.75
2018-03-31T20:33:50.545Z,20.76
2018-03-31T20:36:16.511Z,20.73
2018-03-31T20:38:42.529Z,20.77
2018-03-31T20:41:08.476Z,20.72
2018-03-31T20:43:34.418Z,20.72
2018-03-31T20:46:00.378Z,20.74
2018-03-31T20:48:26.334Z,20.72
2018-03-31T20:50:52.285Z,20.76
2018-03-31T20:53:18.221Z,20.76
2018-03-31T20:55:44.327Z,20.75
2018-03-31T20:58:10.310Z,20.74
2018-03-31T21:00:36.254Z,20.79
2018-03-31T21:03:02.216Z,20.77
2018-03-31T21:05:28.200Z,20.78
2018-03-31T21:07:54.154Z,20.76
2018-03-31T21:10:20.110Z,20.78
2018-03-31T21:12:46.054Z,20.76
2018-03-31T21:15:12.213Z,20.79
2018-03-31T21:17:38.146Z,20.86
2018-03-31T21:20:04.085Z,20.79
2018-03-31T21:22:30.026Z,20.79
2018-03-31T21:24:56.046Z,20.74
2018-03-31T21:27:22.014Z,20.74
2018-03-31T21:29:47.991Z,20.77
2018-03-31T21:32:13.935Z,20.74
2018-03-31T21:34:39.899Z,20.70
2018-03-31T21:37:05.858Z,20.69
2018-03-31T21:39:31.830Z,20.71
2018-03-31T21:41:57.830Z,20.68
2018-03-31T21:44:23.788Z,20.91
2018-03-31T21:46:49.733Z,20.76
2018-03-31T21:49:15.693Z,20.76
2018-03-31T21:51:41.653Z,20.77
2018-03-31T21:54:07.605Z,20.76
2018-03-31T21:56:33.624Z,20.73
2018-03-31T21:58:59.511Z,20.72
2018-03-31T22:01:25.470Z,20.77
2018-03-31T22:03:51.402Z,20.73
2018-03-31T22:06:17.355Z,20.72
2018-03-31T22:08:43.305Z,20.78
2018-03-31T22:11:09.254Z,20.75
2018-03-31T22:13:35.211Z,20.76
2018-03-31T22:16:01.190Z,20.79
2018-03-31T22:18:27.145Z,20.77
2018-03-31T22:20:53.165Z,20.76
2018-03-31T22:23:19.142Z,20.73
2018-03-31T22:25:45.106Z,20.77
2018-03-31T22:28:11.051Z,20.77
2018-03-31T22:30:37.002Z,20.75
2018-03-31T22:33:02.939Z,20.74
2018-03-31T22:35:28.886Z,20.74
2018-03-31T22:37:54.844Z,20.72
2018-03-31T22:40:20.811Z,20.71
2018-03-31T22:42:46.783Z,20.72
2018-03-31T22:45:13.139Z,20.69
2018-03-31T22:47:39.173Z,20.72
2018-03-31T22:50:05.117Z,20.71
2018-03-31T22:52:31.054Z,20.66
2018-03-31T22:54:57.010Z,20.68
2018-03-31T22:57:22.967Z,20.72
2018-03-31T22:59:48.898Z,20.65
2018-03-31T23:02:14.846Z,20.62
2018-03-31T23:04:40.785Z,20.61
2018-03-31T23:07:06.746Z,20.61
2018-03-31T23:09:32.741Z,20.62
2018-03-31T23:11:58.693Z,20.60
2018-03-31T23:14:24.644Z,20.60
2018-03-31T23:16:50.602Z,20.56
2018-03-31T23:19:16.553Z,20.57
2018-03-31T23:21:42.487Z,20.58
2018-03-31T23:24:08.437Z,20.58
2018-03-31T23:26:34.402Z,20.54
2018-03-31T23:29:00.361Z,20.58
2018-03-31T23:31:26.328Z,20.58
2018-03-31T23:33:52.278Z,20.65
2018-03-31T23:36:18.358Z,20.55
2018-03-31T23:38:44.325Z,20.56
2018-03-31T23:41:10.274Z,20.53
2018-03-31T23:43:36.315Z,20.51
2018-03-31T23:46:02.255Z,20.49
2018-03-31T23:48:28.262Z,20.50
2018-03-31T23:50:54.226Z,20.50
2018-03-31T23:53:20.182Z,20.51
2018-03-31T23:55:46.126Z,20.49
2018-03-31T23:58:12.079Z,20.47
